sensor_id;sensor_type;location;lat;lon;timestamp;P1;durP1;ratioP1;P2;durP2;ratioP2
58196;SDS011;43999;51.660;5.616;2022-10-23T00:01:44;13.43;;;10.52;;
58196;SDS011;43999;51.660;5.616;2022-10-23T00:04:15;13.05;;;9.23;;
58196;SDS011;43999;51.660;5.616;2022-10-23T00:06:47;14.43;;;9.80;;
58196;SDS011;43999;51.660;5.616;2022-10-23T00:09:17;12.35;;;9.18;;
58196;SDS011;43999;51.660;5.616;2022-10-23T00:11:50;13.43;;;10.18;;
58196;SDS011;43999;51.660;5.616;2022-10-23T00:14:19;12.25;;;9.40;;
58196;SDS011;43999;51.660;5.616;2022-10-23T00:16:52;13.07;;;9.63;;
58196;SDS011;43999;51.660;5.616;2022-10-23T00:19:19;15.45;;;10.25;;
58196;SDS011;43999;51.660;5.616;2022-10-23T00:21:47;11.88;;;9.45;;
58196;SDS011;43999;51.660;5.616;2022-10-23T00:24:14;10.70;;;9.63;;
58196;SDS011;43999;51.660;5.616;2022-10-23T00:26:41;12.00;;;8.77;;
58196;SDS011;43999;51.660;5.616;2022-10-23T00:29:09;9.90;;;8.98;;
58196;SDS011;43999;51.660;5.616;2022-10-23T00:31:37;11.68;;;8.05;;
58196;SDS011;43999;51.660;5.616;2022-10-23T00:34:04;13.45;;;8.85;;
58196;SDS011;43999;51.660;5.616;2022-10-23T00:36:34;10.07;;;8.80;;
58196;SDS011;43999;51.660;5.616;2022-10-23T00:39:03;14.50;;;9.43;;
58196;SDS011;43999;51.660;5.616;2022-10-23T00:41:32;12.18;;;8.18;;
58196;SDS011;43999;51.660;5.616;2022-10-23T00:46:57;11.70;;;7.63;;
58196;SDS011;43999;51.660;5.616;2022-10-23T00:49:25;10.77;;;7.25;;
58196;SDS011;43999;51.660;5.616;2022-10-23T00:51:58;11.07;;;7.43;;
58196;SDS011;43999;51.660;5.616;2022-10-23T00:54:33;13.25;;;9.27;;
58196;SDS011;43999;51.660;5.616;2022-10-23T00:57:07;12.13;;;8.50;;
58196;SDS011;43999;51.660;5.616;2022-10-23T00:59:40;15.73;;;9.27;;
58196;SDS011;43999;51.660;5.616;2022-10-23T01:02:08;12.90;;;8.20;;
58196;SDS011;43999;51.660;5.616;2022-10-23T01:04:36;12.93;;;8.85;;
58196;SDS011;43999;51.660;5.616;2022-10-23T01:12:54;12.63;;;8.95;;
58196;SDS011;43999;51.660;5.616;2022-10-23T01:18:40;14.60;;;9.50;;
58196;SDS011;43999;51.660;5.616;2022-10-23T01:21:27;13.80;;;8.70;;
58196;SDS011;43999;51.660;5.616;2022-10-23T01:30:03;13.13;;;9.32;;
58196;SDS011;43999;51.660;5.616;2022-10-23T01:44:14;12.43;;;9.20;;
58196;SDS011;43999;51.660;5.616;2022-10-23T01:47:18;12.57;;;9.40;;
58196;SDS011;43999;51.660;5.616;2022-10-23T01:50:06;12.70;;;8.98;;
58196;SDS011;43999;51.660;5.616;2022-10-23T01:52:40;10.70;;;9.57;;
58196;SDS011;43999;51.660;5.616;2022-10-23T01:55:09;15.60;;;9.93;;
58196;SDS011;43999;51.660;5.616;2022-10-23T01:57:39;14.15;;;10.38;;
58196;SDS011;43999;51.660;5.616;2022-10-23T02:00:11;13.48;;;9.00;;
58196;SDS011;43999;51.660;5.616;2022-10-23T02:02:50;10.88;;;9.10;;
58196;SDS011;43999;51.660;5.616;2022-10-23T02:05:26;11.80;;;10.10;;
58196;SDS011;43999;51.660;5.616;2022-10-23T02:07:57;11.20;;;9.30;;
58196;SDS011;43999;51.660;5.616;2022-10-23T02:10:31;11.77;;;10.57;;
58196;SDS011;43999;51.660;5.616;2022-10-23T02:16:53;11.25;;;9.13;;
58196;SDS011;43999;51.660;5.616;2022-10-23T02:23:03;11.13;;;8.82;;
58196;SDS011;43999;51.660;5.616;2022-10-23T02:26:03;15.90;;;10.18;;
58196;SDS011;43999;51.660;5.616;2022-10-23T02:28:48;17.42;;;9.57;;
58196;SDS011;43999;51.660;5.616;2022-10-23T02:31:51;11.85;;;9.50;;
58196;SDS011;43999;51.660;5.616;2022-10-23T02:34:18;14.43;;;10.05;;
58196;SDS011;43999;51.660;5.616;2022-10-23T02:36:46;16.17;;;9.38;;
58196;SDS011;43999;51.660;5.616;2022-10-23T02:39:19;14.55;;;10.00;;
58196;SDS011;43999;51.660;5.616;2022-10-23T02:41:58;10.68;;;9.55;;
58196;SDS011;43999;51.660;5.616;2022-10-23T02:51:28;15.68;;;8.75;;
58196;SDS011;43999;51.660;5.616;2022-10-23T02:54:30;12.63;;;9.40;;
58196;SDS011;43999;51.660;5.616;2022-10-23T02:57:41;13.20;;;9.77;;
58196;SDS011;43999;51.660;5.616;2022-10-23T03:00:31;19.02;;;11.45;;
58196;SDS011;43999;51.660;5.616;2022-10-23T03:03:10;13.75;;;9.73;;
58196;SDS011;43999;51.660;5.616;2022-10-23T03:05:53;13.55;;;10.02;;
58196;SDS011;43999;51.660;5.616;2022-10-23T03:08:21;13.43;;;10.70;;
58196;SDS011;43999;51.660;5.616;2022-10-23T03:10:48;15.00;;;11.00;;
58196;SDS011;43999;51.660;5.616;2022-10-23T03:13:18;13.07;;;10.40;;
58196;SDS011;43999;51.660;5.616;2022-10-23T03:15:45;10.88;;;9.10;;
58196;SDS011;43999;51.660;5.616;2022-10-23T03:18:16;12.05;;;9.23;;
58196;SDS011;43999;51.660;5.616;2022-10-23T03:20:47;16.42;;;9.95;;
58196;SDS011;43999;51.660;5.616;2022-10-23T03:23:14;20.33;;;9.43;;
58196;SDS011;43999;51.660;5.616;2022-10-23T03:25:41;11.77;;;9.90;;
58196;SDS011;43999;51.660;5.616;2022-10-23T03:28:20;16.30;;;9.48;;
58196;SDS011;43999;51.660;5.616;2022-10-23T03:30:49;13.55;;;8.57;;
58196;SDS011;43999;51.660;5.616;2022-10-23T03:33:17;15.77;;;9.10;;
58196;SDS011;43999;51.660;5.616;2022-10-23T03:35:44;10.88;;;8.38;;
58196;SDS011;43999;51.660;5.616;2022-10-23T03:38:15;11.85;;;7.93;;
58196;SDS011;43999;51.660;5.616;2022-10-23T03:40:42;11.05;;;7.75;;
58196;SDS011;43999;51.660;5.616;2022-10-23T03:43:11;16.85;;;8.73;;
58196;SDS011;43999;51.660;5.616;2022-10-23T03:45:39;14.93;;;8.60;;
58196;SDS011;43999;51.660;5.616;2022-10-23T03:48:06;11.77;;;9.13;;
58196;SDS011;43999;51.660;5.616;2022-10-23T03:50:34;9.35;;;7.63;;
58196;SDS011;43999;51.660;5.616;2022-10-23T03:53:03;13.85;;;11.35;;
58196;SDS011;43999;51.660;5.616;2022-10-23T03:55:32;11.95;;;8.65;;
58196;SDS011;43999;51.660;5.616;2022-10-23T03:58:00;11.32;;;7.88;;
58196;SDS011;43999;51.660;5.616;2022-10-23T04:00:27;11.73;;;8.10;;
58196;SDS011;43999;51.660;5.616;2022-10-23T04:02:54;11.63;;;8.02;;
58196;SDS011;43999;51.660;5.616;2022-10-23T04:05:21;14.40;;;7.43;;
58196;SDS011;43999;51.660;5.616;2022-10-23T04:07:53;10.40;;;8.02;;
58196;SDS011;43999;51.660;5.616;2022-10-23T04:10:20;10.48;;;7.90;;
58196;SDS011;43999;51.660;5.616;2022-10-23T04:12:50;10.82;;;7.93;;
58196;SDS011;43999;51.660;5.616;2022-10-23T04:15:18;11.57;;;7.85;;
58196;SDS011;43999;51.660;5.616;2022-10-23T04:17:45;8.48;;;7.40;;
58196;SDS011;43999;51.660;5.616;2022-10-23T04:20:15;16.40;;;7.78;;
58196;SDS011;43999;51.660;5.616;2022-10-23T04:22:45;11.77;;;7.30;;
58196;SDS011;43999;51.660;5.616;2022-10-23T04:25:16;13.77;;;7.88;;
58196;SDS011;43999;51.660;5.616;2022-10-23T04:27:45;9.93;;;7.57;;
58196;SDS011;43999;51.660;5.616;2022-10-23T04:30:13;12.73;;;7.80;;
58196;SDS011;43999;51.660;5.616;2022-10-23T04:32:43;11.30;;;7.72;;
58196;SDS011;43999;51.660;5.616;2022-10-23T04:35:10;11.93;;;7.80;;
58196;SDS011;43999;51.660;5.616;2022-10-23T04:37:38;14.95;;;8.30;;
58196;SDS011;43999;51.660;5.616;2022-10-23T04:40:05;11.00;;;6.50;;
58196;SDS011;43999;51.660;5.616;2022-10-23T04:42:36;9.43;;;7.05;;
58196;SDS011;43999;51.660;5.616;2022-10-23T04:45:03;10.93;;;7.38;;
58196;SDS011;43999;51.660;5.616;2022-10-23T04:47:32;10.18;;;7.82;;
58196;SDS011;43999;51.660;5.616;2022-10-23T04:50:01;8.65;;;7.47;;
58196;SDS011;43999;51.660;5.616;2022-10-23T04:53:08;8.75;;;7.70;;
58196;SDS011;43999;51.660;5.616;2022-10-23T04:56:05;11.85;;;7.65;;
58196;SDS011;43999;51.660;5.616;2022-10-23T04:58:48;8.82;;;7.22;;
58196;SDS011;43999;51.660;5.616;2022-10-23T05:01:16;10.40;;;6.90;;
58196;SDS011;43999;51.660;5.616;2022-10-23T05:03:46;10.95;;;7.88;;
58196;SDS011;43999;51.660;5.616;2022-10-23T05:06:13;9.70;;;7.55;;
58196;SDS011;43999;51.660;5.616;2022-10-23T05:09:10;10.68;;;7.68;;
58196;SDS011;43999;51.660;5.616;2022-10-23T05:12:00;11.68;;;7.60;;
58196;SDS011;43999;51.660;5.616;2022-10-23T05:14:28;10.73;;;8.10;;
58196;SDS011;43999;51.660;5.616;2022-10-23T05:17:03;12.07;;;7.57;;
58196;SDS011;43999;51.660;5.616;2022-10-23T05:19:45;11.00;;;8.15;;
58196;SDS011;43999;51.660;5.616;2022-10-23T05:22:21;11.45;;;7.50;;
58196;SDS011;43999;51.660;5.616;2022-10-23T05:24:57;11.75;;;7.15;;
58196;SDS011;43999;51.660;5.616;2022-10-23T05:27:29;9.73;;;6.95;;
58196;SDS011;43999;51.660;5.616;2022-10-23T05:29:57;11.38;;;9.32;;
58196;SDS011;43999;51.660;5.616;2022-10-23T05:32:28;10.68;;;7.88;;
58196;SDS011;43999;51.660;5.616;2022-10-23T05:34:57;9.85;;;8.55;;
58196;SDS011;43999;51.660;5.616;2022-10-23T05:37:29;11.23;;;8.32;;
58196;SDS011;43999;51.660;5.616;2022-10-23T05:40:10;12.85;;;8.07;;
58196;SDS011;43999;51.660;5.616;2022-10-23T05:42:39;12.15;;;7.78;;
58196;SDS011;43999;51.660;5.616;2022-10-23T05:45:09;9.80;;;7.60;;
58196;SDS011;43999;51.660;5.616;2022-10-23T05:47:55;11.65;;;7.70;;
58196;SDS011;43999;51.660;5.616;2022-10-23T05:51:07;11.07;;;7.32;;
58196;SDS011;43999;51.660;5.616;2022-10-23T05:54:00;10.45;;;7.60;;
58196;SDS011;43999;51.660;5.616;2022-10-23T05:56:39;11.15;;;7.10;;
58196;SDS011;43999;51.660;5.616;2022-10-23T05:59:18;10.75;;;7.30;;
58196;SDS011;43999;51.660;5.616;2022-10-23T06:01:58;14.85;;;7.95;;
58196;SDS011;43999;51.660;5.616;2022-10-23T06:04:40;11.27;;;7.45;;
58196;SDS011;43999;51.660;5.616;2022-10-23T06:07:24;9.45;;;7.55;;
58196;SDS011;43999;51.660;5.616;2022-10-23T06:10:02;8.82;;;7.80;;
58196;SDS011;43999;51.660;5.616;2022-10-23T06:12:34;12.27;;;7.75;;
58196;SDS011;43999;51.660;5.616;2022-10-23T06:15:03;10.00;;;6.95;;
58196;SDS011;43999;51.660;5.616;2022-10-23T06:17:52;9.95;;;7.47;;
58196;SDS011;43999;51.660;5.616;2022-10-23T06:20:19;10.55;;;8.48;;
58196;SDS011;43999;51.660;5.616;2022-10-23T06:23:02;22.90;;;8.82;;
58196;SDS011;43999;51.660;5.616;2022-10-23T06:25:58;9.30;;;7.63;;
58196;SDS011;43999;51.660;5.616;2022-10-23T06:28:36;8.27;;;6.80;;
58196;SDS011;43999;51.660;5.616;2022-10-23T06:31:05;10.25;;;7.88;;
58196;SDS011;43999;51.660;5.616;2022-10-23T06:33:37;11.70;;;6.60;;
58196;SDS011;43999;51.660;5.616;2022-10-23T06:36:07;9.35;;;7.13;;
58196;SDS011;43999;51.660;5.616;2022-10-23T06:38:38;12.00;;;7.47;;
58196;SDS011;43999;51.660;5.616;2022-10-23T06:41:10;9.30;;;6.60;;
58196;SDS011;43999;51.660;5.616;2022-10-23T06:43:46;11.88;;;7.18;;
58196;SDS011;43999;51.660;5.616;2022-10-23T06:46:39;12.63;;;8.07;;
58196;SDS011;43999;51.660;5.616;2022-10-23T06:49:26;8.05;;;7.10;;
58196;SDS011;43999;51.660;5.616;2022-10-23T06:51:56;10.70;;;7.00;;
58196;SDS011;43999;51.660;5.616;2022-10-23T06:54:24;12.05;;;8.60;;
58196;SDS011;43999;51.660;5.616;2022-10-23T06:57:09;9.32;;;7.57;;
58196;SDS011;43999;51.660;5.616;2022-10-23T06:59:42;11.95;;;8.40;;
58196;SDS011;43999;51.660;5.616;2022-10-23T07:02:09;12.60;;;6.57;;
58196;SDS011;43999;51.660;5.616;2022-10-23T07:04:37;10.80;;;7.40;;
58196;SDS011;43999;51.660;5.616;2022-10-23T07:07:12;9.20;;;7.90;;
58196;SDS011;43999;51.660;5.616;2022-10-23T07:09:45;9.38;;;6.35;;
58196;SDS011;43999;51.660;5.616;2022-10-23T07:12:18;8.57;;;7.72;;
58196;SDS011;43999;51.660;5.616;2022-10-23T07:14:51;8.77;;;7.20;;
58196;SDS011;43999;51.660;5.616;2022-10-23T07:17:19;11.35;;;6.72;;
58196;SDS011;43999;51.660;5.616;2022-10-23T07:19:47;10.65;;;6.88;;
58196;SDS011;43999;51.660;5.616;2022-10-23T07:22:14;9.43;;;7.57;;
58196;SDS011;43999;51.660;5.616;2022-10-23T07:25:06;8.48;;;6.68;;
58196;SDS011;43999;51.660;5.616;2022-10-23T07:27:36;11.27;;;7.28;;
58196;SDS011;43999;51.660;5.616;2022-10-23T07:30:07;7.85;;;6.50;;
58196;SDS011;43999;51.660;5.616;2022-10-23T07:32:44;8.60;;;6.50;;
58196;SDS011;43999;51.660;5.616;2022-10-23T07:35:30;9.32;;;8.27;;
58196;SDS011;43999;51.660;5.616;2022-10-23T07:38:06;9.37;;;6.83;;
58196;SDS011;43999;51.660;5.616;2022-10-23T07:40:37;11.85;;;6.53;;
58196;SDS011;43999;51.660;5.616;2022-10-23T07:43:07;8.20;;;6.47;;
58196;SDS011;43999;51.660;5.616;2022-10-23T07:45:34;12.80;;;7.57;;
58196;SDS011;43999;51.660;5.616;2022-10-23T07:48:10;9.17;;;8.27;;
58196;SDS011;43999;51.660;5.616;2022-10-23T07:53:36;10.32;;;7.32;;
58196;SDS011;43999;51.660;5.616;2022-10-23T07:56:36;10.38;;;5.63;;
58196;SDS011;43999;51.660;5.616;2022-10-23T07:59:30;9.98;;;6.60;;
58196;SDS011;43999;51.660;5.616;2022-10-23T08:02:10;7.72;;;5.90;;
58196;SDS011;43999;51.660;5.616;2022-10-23T08:04:41;10.05;;;6.57;;
58196;SDS011;43999;51.660;5.616;2022-10-23T08:07:19;8.77;;;6.35;;
58196;SDS011;43999;51.660;5.616;2022-10-23T08:09:52;9.10;;;6.47;;
58196;SDS011;43999;51.660;5.616;2022-10-23T08:12:19;9.50;;;5.82;;
58196;SDS011;43999;51.660;5.616;2022-10-23T08:14:47;8.25;;;6.55;;
58196;SDS011;43999;51.660;5.616;2022-10-23T08:17:14;7.57;;;5.90;;
58196;SDS011;43999;51.660;5.616;2022-10-23T08:20:08;6.93;;;5.75;;
58196;SDS011;43999;51.660;5.616;2022-10-23T08:22:40;10.38;;;7.05;;
58196;SDS011;43999;51.660;5.616;2022-10-23T08:25:09;9.07;;;6.03;;
58196;SDS011;43999;51.660;5.616;2022-10-23T08:27:37;7.43;;;6.13;;
58196;SDS011;43999;51.660;5.616;2022-10-23T08:30:04;11.10;;;6.72;;
58196;SDS011;43999;51.660;5.616;2022-10-23T08:32:32;7.75;;;6.30;;
58196;SDS011;43999;51.660;5.616;2022-10-23T08:35:01;13.35;;;6.10;;
58196;SDS011;43999;51.660;5.616;2022-10-23T08:37:30;7.90;;;5.75;;
58196;SDS011;43999;51.660;5.616;2022-10-23T08:39:57;13.68;;;6.00;;
58196;SDS011;43999;51.660;5.616;2022-10-23T08:48:21;11.57;;;5.80;;
58196;SDS011;43999;51.660;5.616;2022-10-23T08:51:26;7.45;;;6.00;;
58196;SDS011;43999;51.660;5.616;2022-10-23T08:54:13;6.50;;;4.70;;
58196;SDS011;43999;51.660;5.616;2022-10-23T08:57:08;6.75;;;5.00;;
58196;SDS011;43999;51.660;5.616;2022-10-23T08:59:47;7.30;;;4.45;;
58196;SDS011;43999;51.660;5.616;2022-10-23T09:04:53;8.05;;;5.88;;
58196;SDS011;43999;51.660;5.616;2022-10-23T09:13:39;7.63;;;5.32;;
58196;SDS011;43999;51.660;5.616;2022-10-23T09:16:46;7.00;;;5.25;;
58196;SDS011;43999;51.660;5.616;2022-10-23T09:19:49;9.82;;;5.57;;
58196;SDS011;43999;51.660;5.616;2022-10-23T09:23:20;6.53;;;5.10;;
58196;SDS011;43999;51.660;5.616;2022-10-23T09:25:50;7.90;;;5.28;;
58196;SDS011;43999;51.660;5.616;2022-10-23T09:28:31;6.63;;;5.22;;
58196;SDS011;43999;51.660;5.616;2022-10-23T09:31:13;10.20;;;6.15;;
58196;SDS011;43999;51.660;5.616;2022-10-23T09:36:27;7.10;;;5.32;;
58196;SDS011;43999;51.660;5.616;2022-10-23T09:38:55;12.50;;;5.85;;
58196;SDS011;43999;51.660;5.616;2022-10-23T09:41:38;8.77;;;5.00;;
58196;SDS011;43999;51.660;5.616;2022-10-23T09:49:32;6.85;;;5.03;;
58196;SDS011;43999;51.660;5.616;2022-10-23T09:54:52;11.52;;;5.63;;
58196;SDS011;43999;51.660;5.616;2022-10-23T09:57:34;8.93;;;5.30;;
58196;SDS011;43999;51.660;5.616;2022-10-23T10:02:59;5.93;;;5.18;;
58196;SDS011;43999;51.660;5.616;2022-10-23T10:05:38;7.78;;;4.95;;
58196;SDS011;43999;51.660;5.616;2022-10-23T10:08:23;6.90;;;5.32;;
58196;SDS011;43999;51.660;5.616;2022-10-23T10:17:12;9.02;;;4.75;;
58196;SDS011;43999;51.660;5.616;2022-10-23T10:20:22;7.40;;;6.00;;
58196;SDS011;43999;51.660;5.616;2022-10-23T10:23:06;8.23;;;5.50;;
58196;SDS011;43999;51.660;5.616;2022-10-23T10:29:20;7.72;;;5.13;;
58196;SDS011;43999;51.660;5.616;2022-10-23T10:32:42;9.55;;;5.28;;
58196;SDS011;43999;51.660;5.616;2022-10-23T10:41:33;5.45;;;4.88;;
58196;SDS011;43999;51.660;5.616;2022-10-23T10:47:48;8.23;;;5.13;;
58196;SDS011;43999;51.660;5.616;2022-10-23T10:54:26;6.70;;;4.00;;
58196;SDS011;43999;51.660;5.616;2022-10-23T10:58:23;7.10;;;4.38;;
